Time;durP1;ratioP1;P1;durP2;ratioP2;P2;SDS_P1;SDS_P2;PMS_P1;PMS_P2;Temp;Humidity;BMP_temperature;BMP_pressure;BME280_temperature;BME280_humidity;BME280_pressure;Samples;Min_cycle;Max_cycle;Signal;HPM_P1;HPM_P2
2022/09/22 00:00:58;;;;;;;0.57;0.57;;;;;;;7.25;100.00;101081.84;5029536;28;20495;-51
2022/09/22 00:03:28;;;;;;;8.57;2.90;;;;;;;7.21;100.00;101082.75;5002870;28;20686;-51
2022/09/22 00:05:59;;;;;;;2.93;1.33;;;;;;;7.22;100.00;101079.22;5028195;28;20459;-51
2022/09/22 00:08:27;;;;;;;3.83;0.80;;;;;;;7.23;100.00;101084.50;5028595;28;20490;-51
2022/09/22 00:11:15;;;;;;;0.80;0.70;;;;;;;7.02;100.00;101077.50;5028370;28;21361;-51
2022/09/22 00:13:44;;;;;;;1.20;1.10;;;;;;;7.12;100.00;101084.53;5028460;28;20455;-51
2022/09/22 00:16:12;;;;;;;0.83;0.80;;;;;;;7.05;100.00;101082.78;5015949;28;20483;-51
2022/09/22 00:18:39;;;;;;;0.40;0.30;;;;;;;7.05;100.00;101090.72;5020836;28;20452;-51
2022/09/22 00:21:11;;;;;;;0.50;0.40;;;;;;;7.03;100.00;101087.19;5027985;28;20502;-51
2022/09/22 00:23:40;;;;;;;2.07;1.57;;;;;;;6.96;100.00;101089.84;5015188;28;20455;-51
2022/09/22 00:26:09;;;;;;;0.50;0.50;;;;;;;6.99;100.00;101084.53;5001861;28;20948;-50
2022/09/22 00:28:40;;;;;;;1.50;1.40;;;;;;;7.00;100.00;101084.56;5028356;28;20805;-51
2022/09/22 00:31:16;;;;;;;1.63;0.50;;;;;;;7.09;100.00;101092.47;5028782;28;20498;-51
2022/09/22 00:33:45;;;;;;;0.60;0.57;;;;;;;6.95;100.00;101091.59;5031798;28;20450;-51
2022/09/22 00:36:12;;;;;;;2.87;0.97;;;;;;;6.80;100.00;101084.56;5024561;28;20539;-50
2022/09/22 00:38:40;;;;;;;1.60;1.50;;;;;;;6.82;100.00;101085.44;5031656;28;20455;-50
2022/09/22 00:41:09;;;;;;;0.40;0.30;;;;;;;6.93;100.00;101084.56;5031506;28;21439;-50
2022/09/22 00:43:37;;;;;;;1.90;1.80;;;;;;;6.78;100.00;101085.47;5031815;28;20459;-50
2022/09/22 00:46:37;;;;;;;2.77;1.20;;;;;;;6.84;100.00;101083.69;5031510;28;20960;-50
2022/09/22 00:49:07;;;;;;;2.47;1.50;;;;;;;6.80;100.00;101086.34;4993105;28;20459;-51
2022/09/22 00:51:36;;;;;;;5.97;1.27;;;;;;;6.70;100.00;101080.16;5031217;28;20475;-51
2022/09/22 00:54:07;;;;;;;1.63;1.10;;;;;;;6.73;100.00;101088.09;5031593;28;20451;-51
2022/09/22 00:56:40;;;;;;;2.07;1.30;;;;;;;6.84;100.00;101081.03;5031350;28;20505;-50
2022/09/22 00:59:13;;;;;;;1.10;1.10;;;;;;;6.71;100.00;101075.75;5031323;28;21015;-51
2022/09/22 01:01:39;;;;;;;1.47;1.17;;;;;;;6.54;100.00;101071.34;5030932;28;20881;-50
2022/09/22 01:04:06;;;;;;;0.70;0.70;;;;;;;6.57;100.00;101074.88;5031257;28;21062;-51
2022/09/22 01:06:34;;;;;;;0.70;0.70;;;;;;;6.61;100.00;101068.72;5030869;28;20857;-51
2022/09/22 01:09:01;;;;;;;3.50;0.80;;;;;;;6.51;100.00;101057.28;5031226;28;20451;-50
2022/09/22 01:11:28;;;;;;;5.40;0.60;;;;;;;6.65;100.00;101066.09;5031219;28;20463;-51
2022/09/22 01:14:36;;;;;;;3.97;0.83;;;;;;;6.52;100.00;101064.31;5030992;28;20455;-50
2022/09/22 01:17:27;;;;;;;1.37;1.17;;;;;;;6.46;100.00;101059.94;5011248;28;20876;-51
2022/09/22 01:20:05;;;;;;;0.40;0.40;;;;;;;6.37;100.00;101062.56;5009901;28;21012;-51
2022/09/22 01:22:48;;;;;;;1.27;0.67;;;;;;;6.49;100.00;101062.56;5023861;28;20471;-50
2022/09/22 01:25:33;;;;;;;1.43;1.33;;;;;;;6.54;100.00;101065.19;5031035;28;20448;-52
2022/09/22 01:28:22;;;;;;;1.37;1.37;;;;;;;6.57;100.00;101057.25;5008775;28;20482;-51
2022/09/22 01:31:11;;;;;;;1.37;1.37;;;;;;;6.33;100.00;101063.44;5031078;28;20475;-50
2022/09/22 01:33:48;;;;;;;1.37;0.73;;;;;;;6.37;100.00;101053.75;5030765;28;20451;-50
2022/09/22 01:36:23;;;;;;;0.87;0.83;;;;;;;6.38;100.00;101052.88;5023714;28;20455;-51
2022/09/22 01:38:58;;;;;;;1.40;0.80;;;;;;;6.36;100.00;101058.16;5030592;28;20447;-50
2022/09/22 01:41:41;;;;;;;1.07;0.97;;;;;;;6.26;100.00;101059.00;5030739;28;20574;-50
2022/09/22 01:44:20;;;;;;;1.33;1.00;;;;;;;6.36;100.00;101052.88;5006984;28;20459;-50
2022/09/22 01:46:54;;;;;;;0.60;0.50;;;;;;;6.28;100.00;101059.00;5030409;28;20948;-50
2022/09/22 01:49:23;;;;;;;1.03;0.93;;;;;;;6.29;100.00;101055.50;5030779;28;20505;-50
2022/09/22 01:51:56;;;;;;;0.43;0.43;;;;;;;6.40;100.00;101051.09;5029958;28;20479;-51
2022/09/22 01:54:31;;;;;;;1.40;1.30;;;;;;;6.41;100.00;101053.75;5030450;28;20448;-50
2022/09/22 01:57:19;;;;;;;0.53;0.40;;;;;;;6.32;100.00;101052.88;5005361;28;20443;-50
2022/09/22 01:59:53;;;;;;;0.50;0.40;;;;;;;6.35;100.00;101048.47;5030145;28;20452;-50
2022/09/22 02:02:28;;;;;;;1.40;0.63;;;;;;;6.39;100.00;101049.34;5030373;28;20479;-50
2022/09/22 02:05:01;;;;;;;1.10;0.97;;;;;;;6.42;100.00;101057.25;5029562;28;20505;-49
2022/09/22 02:07:32;;;;;;;0.40;0.40;;;;;;;6.38;100.00;101047.59;5029705;28;21020;-50
2022/09/22 02:10:04;;;;;;;0.70;0.60;;;;;;;6.34;100.00;101059.91;5030009;28;20440;-50
2022/09/22 02:12:31;;;;;;;0.70;0.63;;;;;;;6.23;100.00;101043.19;5029703;28;20522;-50
2022/09/22 02:14:57;;;;;;;0.50;0.50;;;;;;;6.22;100.00;101049.34;5027420;28;20455;-51
2022/09/22 02:17:23;;;;;;;0.70;0.50;;;;;;;6.22;100.00;101041.41;5012236;28;20449;-52
2022/09/22 02:19:51;;;;;;;0.70;0.70;;;;;;;6.22;100.00;101044.94;5029865;28;20506;-51
2022/09/22 02:22:17;;;;;;;1.07;1.07;;;;;;;6.09;100.00;101045.78;5022427;28;20473;-50
2022/09/22 02:24:45;;;;;;;0.70;0.70;;;;;;;6.09;100.00;101043.16;5029711;28;20506;-50
2022/09/22 02:27:25;;;;;;;0.50;0.50;;;;;;;6.14;100.00;101041.38;5011868;28;20448;-50
2022/09/22 02:30:09;;;;;;;1.33;1.33;;;;;;;6.13;100.00;101044.03;5029842;28;20452;-51
2022/09/22 02:32:40;;;;;;;10.70;0.93;;;;;;;6.08;100.00;101044.03;5029739;28;20475;-51
2022/09/22 02:35:07;;;;;;;0.70;0.60;;;;;;;6.05;100.00;101036.13;5022309;28;20453;-50
2022/09/22 02:37:49;;;;;;;1.13;0.90;;;;;;;6.03;100.00;101042.25;5029281;28;20486;-51
2022/09/22 02:40:21;;;;;;;2.00;1.80;;;;;;;6.01;100.00;101041.38;5029422;28;20495;-50
2022/09/22 02:43:18;;;;;;;0.50;0.40;;;;;;;5.89;100.00;101036.91;5029664;28;20456;-50
2022/09/22 02:45:54;;;;;;;0.53;0.47;;;;;;;5.86;100.00;101042.19;5000337;28;20464;-50
2022/09/22 02:48:25;;;;;;;1.73;0.87;;;;;;;5.90;100.00;101041.38;5029391;28;20462;-50
2022/09/22 02:50:53;;;;;;;0.60;0.50;;;;;;;5.91;100.00;101038.72;5029707;28;20865;-49
2022/09/22 02:53:19;;;;;;;0.70;0.70;;;;;;;5.97;100.00;101039.59;5029225;28;20452;-49
2022/09/22 02:55:47;;;;;;;0.70;0.70;;;;;;;5.85;100.00;101033.38;5029274;28;20995;-48
2022/09/22 02:58:15;;;;;;;0.40;0.37;;;;;;;5.79;100.00;101032.50;5028851;28;20455;-49
2022/09/22 03:00:42;;;;;;;0.60;0.60;;;;;;;5.68;100.00;101034.22;5029130;28;20506;-49
2022/09/22 03:03:11;;;;;;;0.50;0.50;;;;;;;5.71;100.00;101031.59;5029154;28;20842;-50
2022/09/22 03:05:38;;;;;;;0.80;0.70;;;;;;;5.81;100.00;101031.63;5028397;28;20458;-49
2022/09/22 03:08:05;;;;;;;0.57;0.57;;;;;;;5.68;100.00;101032.47;5028803;28;20455;-49
2022/09/22 03:10:32;;;;;;;0.40;0.40;;;;;;;5.67;100.00;101029.81;5028981;28;20451;-49
2022/09/22 03:12:59;;;;;;;1.33;0.80;;;;;;;5.57;100.00;101023.63;5028649;28;21172;-49
2022/09/22 03:15:42;;;;;;;0.63;0.63;;;;;;;5.51;100.00;101019.22;5020440;28;20480;-49
2022/09/22 03:18:09;;;;;;;0.50;0.40;;;;;;;5.49;100.00;101018.34;5017509;28;20462;-49
2022/09/22 03:20:35;;;;;;;0.83;0.83;;;;;;;5.49;100.00;101020.09;5028684;28;20499;-50
2022/09/22 03:23:02;;;;;;;1.33;0.40;;;;;;;5.51;100.00;101013.06;5021600;28;21015;-49
2022/09/22 03:25:28;;;;;;;0.70;0.70;;;;;;;5.51;100.00;101013.94;5028642;28;20510;-50
2022/09/22 03:27:54;;;;;;;6.13;0.67;;;;;;;5.52;100.00;101010.44;5029228;28;20455;-49
2022/09/22 03:30:21;;;;;;;0.53;0.53;;;;;;;5.50;100.00;101011.31;5028710;28;20472;-49
2022/09/22 03:32:47;;;;;;;0.37;0.27;;;;;;;5.56;100.00;101009.56;5028967;28;20451;-49
2022/09/22 03:35:14;;;;;;;0.97;0.97;;;;;;;5.50;100.00;101009.56;5004296;28;20457;-49
2022/09/22 03:37:40;;;;;;;0.43;0.30;;;;;;;5.53;100.00;101006.03;5028454;28;20459;-50
2022/09/22 03:40:07;;;;;;;0.60;0.50;;;;;;;5.57;100.00;101006.06;5028624;28;20803;-49
2022/09/22 03:42:34;;;;;;;0.60;0.60;;;;;;;5.52;100.00;101001.66;5028933;28;21078;-49
2022/09/22 03:45:02;;;;;;;0.67;0.67;;;;;;;5.48;100.00;101015.66;5029251;28;20455;-49
2022/09/22 03:47:28;;;;;;;1.40;1.17;;;;;;;5.46;100.00;101009.50;5029057;28;20459;-48
2022/09/22 03:49:55;;;;;;;0.40;0.30;;;;;;;5.49;100.00;101007.81;5028628;28;20452;-50
2022/09/22 03:52:21;;;;;;;0.40;0.30;;;;;;;5.42;100.00;100998.09;5028306;28;20487;-49
2022/09/22 03:54:48;;;;;;;0.77;0.77;;;;;;;5.33;100.00;101008.59;5028689;28;20451;-49
2022/09/22 03:57:15;;;;;;;0.47;0.30;;;;;;;5.44;100.00;101011.28;5028675;28;20490;-49
2022/09/22 03:59:41;;;;;;;0.67;0.67;;;;;;;5.41;100.00;101013.91;5028402;28;20952;-49
2022/09/22 04:02:07;;;;;;;0.60;0.60;;;;;;;5.36;100.00;101008.63;5028461;28;20503;-50
2022/09/22 04:04:34;;;;;;;0.97;0.50;;;;;;;5.26;100.00;101002.41;5028192;28;20509;-49
2022/09/22 04:07:02;;;;;;;3.00;2.80;;;;;;;5.30;100.00;101016.50;5030357;28;20516;-49
2022/09/22 04:09:32;;;;;;;0.53;0.50;;;;;;;5.29;100.00;101005.06;5031751;28;20447;-49
2022/09/22 04:11:59;;;;;;;0.40;0.37;;;;;;;5.32;100.00;101012.09;5014479;28;20556;-49
2022/09/22 04:14:26;;;;;;;0.50;0.50;;;;;;;5.31;100.00;101008.59;5029800;28;20452;-49
2022/09/22 04:16:53;;;;;;;0.50;0.40;;;;;;;5.26;100.00;101004.19;5013743;28;20448;-50
2022/09/22 04:19:20;;;;;;;0.50;0.37;;;;;;;5.30;100.00;100998.91;5029731;28;20467;-50
2022/09/22 04:21:46;;;;;;;4.90;0.57;;;;;;;5.32;100.00;101005.06;5026906;28;20562;-49
2022/09/22 04:24:12;;;;;;;1.50;1.40;;;;;;;5.37;100.00;101004.22;5030142;28;20949;-50
2022/09/22 04:26:39;;;;;;;1.50;1.40;;;;;;;5.36;100.00;101006.00;5031953;28;21026;-49
2022/09/22 04:29:25;;;;;;;0.40;0.37;;;;;;;6.57;100.00;101001.81;5031903;28;20541;-50
2022/09/22 04:31:51;;;;;;;0.40;0.30;;;;;;;5.86;100.00;101007.88;5031483;28;20885;-49
2022/09/22 04:34:18;;;;;;;0.70;0.70;;;;;;;5.70;100.00;101006.09;5030548;28;20451;-49
2022/09/22 04:36:44;;;;;;;7.73;2.30;;;;;;;5.73;100.00;101011.38;5025703;28;20456;-49
2022/09/22 04:39:11;;;;;;;2.40;0.83;;;;;;;5.63;100.00;101002.56;5031821;28;20451;-49
2022/09/22 04:41:37;;;;;;;3.70;0.83;;;;;;;5.48;100.00;101003.41;5031446;28;20490;-49
2022/09/22 04:44:04;;;;;;;1.53;1.43;;;;;;;5.46;100.00;100999.84;5031760;28;20460;-49
2022/09/22 04:46:30;;;;;;;1.90;1.20;;;;;;;5.34;100.00;101005.06;5031294;28;20455;-51
2022/09/22 04:48:57;;;;;;;1.67;1.57;;;;;;;5.29;100.00;101002.44;5031610;28;20455;-49
2022/09/22 04:51:23;;;;;;;1.17;1.07;;;;;;;5.30;100.00;101000.66;5031573;28;20476;-49
2022/09/22 04:53:49;;;;;;;0.73;0.73;;;;;;;5.29;100.00;101004.19;5005343;28;20514;-49
2022/09/22 04:56:16;;;;;;;0.60;0.60;;;;;;;5.26;100.00;101004.19;5031624;28;20455;-49
2022/09/22 04:58:42;;;;;;;0.50;0.43;;;;;;;5.13;100.00;101005.00;5005368;28;20879;-50
2022/09/22 05:01:09;;;;;;;0.60;0.60;;;;;;;5.21;100.00;101011.19;5030952;28;20488;-50
2022/09/22 05:03:37;;;;;;;0.43;0.37;;;;;;;5.24;100.00;101011.19;5031534;28;20458;-49
2022/09/22 05:06:05;;;;;;;1.07;0.50;;;;;;;5.33;100.00;101003.31;5029525;28;20483;-50
2022/09/22 05:08:31;;;;;;;0.87;0.80;;;;;;;5.27;100.00;101013.84;5031232;28;21010;-49
2022/09/22 05:10:58;;;;;;;0.40;0.30;;;;;;;5.28;100.00;101005.94;5031047;28;20499;-51
2022/09/22 05:13:24;;;;;;;2.40;1.37;;;;;;;5.42;100.00;101005.13;5031210;28;20543;-50
2022/09/22 05:15:51;;;;;;;0.70;0.70;;;;;;;5.23;100.00;101014.72;5021217;28;20452;-49
2022/09/22 05:18:18;;;;;;;3.63;1.60;;;;;;;5.18;100.00;101019.06;5019345;28;21074;-50
2022/09/22 05:20:44;;;;;;;1.00;0.80;;;;;;;5.15;100.00;101014.66;5031062;28;20476;-49
2022/09/22 05:23:11;;;;;;;1.03;0.73;;;;;;;5.15;100.00;101017.28;5023995;28;20455;-49
2022/09/22 05:25:38;;;;;;;7.27;1.47;;;;;;;5.13;100.00;101018.16;5030994;28;20501;-49
2022/09/22 05:28:04;;;;;;;1.03;0.93;;;;;;;5.29;100.00;101022.63;5013287;28;20960;-49
2022/09/22 05:30:30;;;;;;;3.23;1.20;;;;;;;5.13;100.00;101024.31;5031771;28;20451;-50
2022/09/22 05:32:57;;;;;;;8.23;2.83;;;;;;;5.21;100.00;101032.28;5031082;28;20953;-49
2022/09/22 05:35:24;;;;;;;0.60;0.53;;;;;;;5.31;100.00;101028.78;5023327;28;20461;-49
2022/09/22 05:37:52;;;;;;;6.73;1.60;;;;;;;5.32;100.00;101028.78;5013190;28;20452;-49
2022/09/22 05:40:19;;;;;;;1.43;1.33;;;;;;;5.23;100.00;101026.13;5030690;28;20570;-50
2022/09/22 05:42:48;;;;;;;1.33;1.23;;;;;;;5.34;100.00;101032.34;5030449;28;20945;-49
2022/09/22 05:45:15;;;;;;;1.27;0.83;;;;;;;5.43;100.00;101034.13;5030590;28;20451;-51
2022/09/22 05:47:42;;;;;;;1.43;0.90;;;;;;;5.42;100.00;101021.81;5030340;28;20796;-49
2022/09/22 05:50:11;;;;;;;11.73;0.70;;;;;;;5.54;100.00;101026.25;5030261;28;20680;-49
2022/09/22 05:52:37;;;;;;;2.10;0.80;;;;;;;5.54;100.00;101032.41;5030050;28;21064;-50
2022/09/22 05:55:04;;;;;;;0.80;0.70;;;;;;;5.51;100.00;101032.41;5030461;28;20529;-49
2022/09/22 05:57:31;;;;;;;0.70;0.70;;;;;;;5.67;100.00;101027.19;5030040;28;20558;-49
2022/09/22 05:59:58;;;;;;;0.40;0.20;;;;;;;5.87;100.00;101036.03;5030316;28;20501;-49
2022/09/22 06:02:25;;;;;;;5.20;0.83;;;;;;;5.79;100.00;101022.84;5030105;28;20495;-49
2022/09/22 06:04:52;;;;;;;0.80;0.73;;;;;;;5.94;100.00;101030.81;5029577;28;20451;-50
2022/09/22 06:07:20;;;;;;;25.27;3.40;;;;;;;5.98;100.00;101038.72;5030286;28;21115;-50
2022/09/22 06:09:47;;;;;;;2.63;1.20;;;;;;;6.03;100.00;101035.25;5030505;28;20506;-49
2022/09/22 06:12:14;;;;;;;0.77;0.77;;;;;;;6.08;100.00;101037.88;5030180;28;20472;-49
2022/09/22 06:14:41;;;;;;;1.37;1.27;;;;;;;6.24;100.00;101035.25;5029669;28;20461;-50
2022/09/22 06:17:10;;;;;;;1.00;1.00;;;;;;;6.33;100.00;101029.13;5010466;28;20448;-49
2022/09/22 06:19:37;;;;;;;2.80;1.33;;;;;;;6.49;100.00;101027.34;5029975;28;20510;-49
2022/09/22 06:22:04;;;;;;;0.50;0.40;;;;;;;6.67;100.00;101037.91;5022589;28;20492;-49
2022/09/22 06:24:31;;;;;;;1.33;1.23;;;;;;;6.64;100.00;101029.97;5029696;28;20509;-49
2022/09/22 06:26:57;;;;;;;0.97;0.97;;;;;;;6.57;100.00;101025.56;5029911;28;20455;-50
2022/09/22 06:29:24;;;;;;;0.50;0.40;;;;;;;6.68;100.00;101029.09;5029459;28;20456;-49
2022/09/22 06:31:51;;;;;;;1.60;0.97;;;;;;;6.76;100.00;101031.75;5029521;28;20476;-49
2022/09/22 06:34:17;;;;;;;0.70;0.57;;;;;;;6.79;100.00;101023.81;5028564;28;20455;-49
2022/09/22 06:36:44;;;;;;;1.80;1.70;;;;;;;6.83;100.00;101023.78;5023962;28;20456;-49
2022/09/22 06:39:11;;;;;;;2.17;1.93;;;;;;;6.93;100.00;101018.50;5029629;28;20451;-49
2022/09/22 06:41:38;;;;;;;1.63;1.00;;;;;;;7.08;100.00;101019.34;5029554;28;20579;-49
2022/09/22 06:44:05;;;;;;;0.70;0.70;;;;;;;7.14;100.00;101018.47;5029525;28;20530;-49
2022/09/22 06:46:33;;;;;;;1.67;0.93;;;;;;;7.20;100.00;101013.13;5029237;28;20452;-49
2022/09/22 06:48:59;;;;;;;1.47;0.70;;;;;;;7.27;100.00;101009.59;5029457;28;20447;-49
2022/09/22 06:51:29;;;;;;;1.73;0.90;;;;;;;7.52;100.00;101013.00;5028883;28;20487;-49
2022/09/22 06:53:55;;;;;;;0.97;0.97;;;;;;;7.48;100.00;101013.91;5029064;28;20455;-49
2022/09/22 06:56:24;;;;;;;1.27;0.60;;;;;;;7.70;100.00;101009.41;5029327;28;20502;-49
2022/09/22 06:58:51;;;;;;;1.13;1.03;;;;;;;7.89;100.00;101018.13;5029042;28;20455;-50
2022/09/22 07:01:36;;;;;;;1.23;0.50;;;;;;;7.89;100.00;101016.34;5028878;28;20495;-49
2022/09/22 07:04:03;;;;;;;0.67;0.67;;;;;;;8.13;100.00;101011.78;5028919;28;20498;-49
2022/09/22 07:06:30;;;;;;;0.87;0.83;;;;;;;8.09;100.00;101016.25;5028834;28;20466;-49
2022/09/22 07:08:56;;;;;;;0.97;0.73;;;;;;;8.09;100.00;101013.59;5029032;28;20451;-49
2022/09/22 07:11:23;;;;;;;4.30;0.87;;;;;;;8.16;100.00;101012.63;5028852;28;20487;-49
2022/09/22 07:13:52;;;;;;;0.60;0.50;;;;;;;8.40;100.00;101010.75;5029077;28;20873;-49
2022/09/22 07:16:20;;;;;;;0.90;0.73;;;;;;;8.28;100.00;101012.56;5015334;28;20449;-50
2022/09/22 07:18:53;;;;;;;0.93;0.50;;;;;;;8.49;100.00;101019.47;5022209;28;20546;-51
2022/09/22 07:21:23;;;;;;;0.63;0.63;;;;;;;8.50;100.00;101009.78;5027790;28;20475;-50
2022/09/22 07:23:52;;;;;;;2.77;1.10;;;;;;;8.52;100.00;101018.59;5023681;28;20456;-50
2022/09/22 07:26:25;;;;;;;0.60;0.53;;;;;;;8.65;100.00;101014.06;5029027;28;20451;-50
2022/09/22 07:28:55;;;;;;;1.20;0.70;;;;;;;8.86;100.00;101024.44;5028764;28;20533;-50
2022/09/22 07:31:22;;;;;;;9.63;1.63;;;;;;;9.22;100.00;101009.94;5028881;28;20472;-48
2022/09/22 07:33:54;;;;;;;0.97;0.97;;;;;;;9.33;100.00;101016.00;5028827;28;20452;-48
2022/09/22 07:36:22;;;;;;;1.20;1.03;;;;;;;9.33;100.00;101023.09;5021768;28;20550;-48
2022/09/22 07:38:51;;;;;;;1.13;1.03;;;;;;;9.57;100.00;101025.41;5028946;28;20455;-48
2022/09/22 07:41:28;;;;;;;0.93;0.50;;;;;;;9.52;100.00;101021.06;5029559;28;20479;-48
2022/09/22 07:45:11;;;;;;;0.70;0.53;;;;;;;9.73;100.00;101026.09;5033366;28;20452;-50
2022/09/22 07:46:44;;;;;;;0.80;0.77;;;;;;;9.91;100.00;101020.53;5032847;28;20455;-49
2022/09/22 07:49:10;;;;;;;1.17;0.70;;;;;;;9.91;100.00;101015.25;5032744;28;20451;-49
2022/09/22 07:51:37;;;;;;;1.00;0.90;;;;;;;10.03;100.00;101015.06;5032468;28;20475;-47
2022/09/22 07:54:06;;;;;;;1.00;0.90;;;;;;;10.01;100.00;101016.00;5032429;28;20456;-48
2022/09/22 07:56:34;;;;;;;1.53;1.43;;;;;;;10.16;100.00;101012.22;5032612;28;20463;-49
2022/09/22 07:59:03;;;;;;;0.90;0.80;;;;;;;10.04;100.00;101016.81;5032748;28;20944;-48
2022/09/22 08:01:33;;;;;;;1.70;1.60;;;;;;;10.38;100.00;101011.88;5032314;28;20552;-49
2022/09/22 08:04:00;;;;;;;1.13;1.10;;;;;;;10.53;100.00;101012.53;5014707;28;20459;-48
2022/09/22 08:06:27;;;;;;;0.87;0.77;;;;;;;10.32;100.00;101012.00;5031152;28;20460;-49
2022/09/22 08:08:55;;;;;;;3.17;1.00;;;;;;;10.74;100.00;101011.28;5032304;28;20455;-49
2022/09/22 08:11:25;;;;;;;0.60;0.60;;;;;;;11.08;100.00;101014.19;5032100;28;20475;-49
2022/09/22 08:13:55;;;;;;;5.60;1.43;;;;;;;10.94;99.80;101003.81;5032319;28;20456;-49
2022/09/22 08:16:26;;;;;;;2.90;0.83;;;;;;;11.21;100.00;101007.75;5018030;28;20588;-48
2022/09/22 08:18:55;;;;;;;8.93;1.80;;;;;;;11.12;100.00;101007.94;5026405;28;20555;-49
2022/09/22 08:21:26;;;;;;;0.77;0.70;;;;;;;11.38;98.41;101007.44;5030341;28;20544;-48
2022/09/22 08:23:53;;;;;;;0.80;0.80;;;;;;;11.43;98.53;101005.53;5027370;28;20470;-49
2022/09/22 08:26:20;;;;;;;0.73;0.70;;;;;;;11.28;99.22;101012.03;5032172;28;20456;-50
2022/09/22 08:28:51;;;;;;;1.47;0.83;;;;;;;11.69;97.94;101008.53;5032592;28;20501;-50
2022/09/22 08:31:21;;;;;;;3.23;0.83;;;;;;;11.77;97.72;101013.66;5032276;28;20472;-50
2022/09/22 08:33:49;;;;;;;1.73;0.70;;;;;;;11.62;98.30;101004.22;5031855;28;20518;-50
2022/09/22 08:36:15;;;;;;;1.77;0.97;;;;;;;11.85;98.67;101006.44;5025202;28;20452;-50
2022/09/22 08:38:42;;;;;;;0.90;0.90;;;;;;;11.90;98.22;100999.19;5031862;28;20510;-49
2022/09/22 08:41:14;;;;;;;1.07;1.07;;;;;;;12.12;97.37;100999.59;5032017;28;20471;-50
2022/09/22 08:43:54;;;;;;;1.60;1.50;;;;;;;12.16;97.26;100999.47;5032158;28;20495;-49
2022/09/22 08:46:28;;;;;;;0.70;0.70;;;;;;;12.35;96.37;101001.72;5031540;28;20463;-49
2022/09/22 08:51:53;;;;;;;1.30;1.03;;;;;;;12.75;94.52;100991.81;5031768;28;20542;-51
2022/09/22 08:54:30;;;;;;;8.30;0.87;;;;;;;12.74;95.12;100997.16;5031608;28;20455;-51
2022/09/22 08:57:20;;;;;;;1.30;1.17;;;;;;;12.88;94.50;101003.00;5007432;28;21190;-51
2022/09/22 09:00:10;;;;;;;1.97;1.10;;;;;;;13.36;94.31;100999.94;5031654;28;20533;-51
2022/09/22 09:03:16;;;;;;;1.70;1.57;;;;;;;13.28;93.97;100994.81;5031283;28;20533;-52
2022/09/22 09:06:03;;;;;;;3.90;1.60;;;;;;;13.53;92.71;100994.09;4969028;28;20483;-52
2022/09/22 09:08:41;;;;;;;0.60;0.50;;;;;;;13.59;93.22;100993.94;5009831;28;20527;-52
2022/09/22 09:11:28;;;;;;;1.90;1.13;;;;;;;13.94;92.25;100990.19;5030889;28;20471;-51
2022/09/22 09:14:11;;;;;;;0.90;0.80;;;;;;;13.93;91.96;100989.31;5031354;28;20444;-51
2022/09/22 09:16:47;;;;;;;2.93;0.80;;;;;;;13.98;92.48;100980.25;5015493;28;20634;-52
2022/09/22 09:19:22;;;;;;;1.20;1.07;;;;;;;14.42;90.30;100985.06;5028027;28;20517;-51
2022/09/22 09:21:51;;;;;;;0.70;0.70;;;;;;;14.56;90.18;100987.31;5025653;28;20472;-51
2022/09/22 09:24:26;;;;;;;1.30;1.20;;;;;;;14.64;89.77;100989.72;5029934;28;20455;-52
2022/09/22 09:27:20;;;;;;;1.23;0.90;;;;;;;14.65;89.06;100981.63;5030801;28;20452;-52
2022/09/22 09:30:17;;;;;;;2.17;1.50;;;;;;;14.75;89.03;100980.41;5031069;28;20878;-52
2022/09/22 09:32:51;;;;;;;1.47;1.37;;;;;;;14.81;88.41;100979.31;5000673;28;20949;-52
2022/09/22 09:35:25;;;;;;;2.03;1.20;;;;;;;14.99;88.16;100973.31;5023636;28;20962;-52
2022/09/22 09:37:58;;;;;;;0.70;0.60;;;;;;;15.05;88.15;100981.09;5030889;28;20447;-51
2022/09/22 09:40:24;;;;;;;2.23;1.80;;;;;;;14.98;87.84;100974.25;5030467;28;20451;-52
2022/09/22 09:43:02;;;;;;;13.73;1.13;;;;;;;15.19;87.60;100971.69;5030855;28;20582;-51
2022/09/22 09:45:53;;;;;;;1.90;0.80;;;;;;;15.35;87.52;100971.09;5030957;28;20453;-51
2022/09/22 09:48:45;;;;;;;2.83;1.10;;;;;;;15.14;86.66;100965.66;5013136;28;20451;-51
2022/09/22 09:51:13;;;;;;;33.47;2.27;;;;;;;15.47;86.59;100966.19;5030614;28;20510;-52
2022/09/22 09:53:44;;;;;;;1.20;0.90;;;;;;;15.87;84.65;100955.72;5030486;28;20474;-51
2022/09/22 09:56:32;;;;;;;1.10;1.10;;;;;;;16.00;82.60;100951.59;5030471;28;20884;-51
2022/09/22 10:01:50;;;;;;;0.87;0.87;;;;;;;16.18;81.64;100955.38;5030762;28;20471;-51
2022/09/22 10:04:27;;;;;;;0.53;0.50;;;;;;;16.13;81.42;100957.34;5028911;28;20451;-51
2022/09/22 10:07:15;;;;;;;1.50;1.40;;;;;;;15.84;82.40;100953.16;5006341;28;20455;-51
2022/09/22 10:09:43;;;;;;;3.23;1.77;;;;;;;16.32;81.32;100945.88;5029798;28;20447;-52
2022/09/22 10:12:31;;;;;;;8.17;3.13;;;;;;;16.40;79.50;100935.69;5030389;28;20475;-52
2022/09/22 10:15:00;;;;;;;1.20;1.10;;;;;;;16.30;79.58;100941.41;5002440;28;20451;-52
2022/09/22 10:17:29;;;;;;;0.63;0.50;;;;;;;16.19;80.38;100937.47;5012460;28;20445;-51
2022/09/22 10:20:16;;;;;;;2.80;0.70;;;;;;;16.48;75.20;100936.22;5030352;28;20459;-52
2022/09/22 10:22:43;;;;;;;2.73;0.97;;;;;;;16.51;72.77;100933.41;5022024;28;20553;-52
2022/09/22 10:25:23;;;;;;;1.23;0.93;;;;;;;16.35;72.95;100932.31;5030206;28;20451;-52
2022/09/22 10:28:04;;;;;;;6.33;0.87;;;;;;;16.43;70.82;100936.41;5030447;28;20451;-52
2022/09/22 10:30:32;;;;;;;6.63;0.70;;;;;;;16.33;71.00;100924.34;5029576;28;20459;-51
2022/09/22 10:33:03;;;;;;;1.07;0.50;;;;;;;16.39;71.56;100924.06;5030221;28;20455;-52
2022/09/22 10:35:32;;;;;;;0.50;0.33;;;;;;;16.83;72.80;100919.47;5022369;28;21028;-52
2022/09/22 10:38:08;;;;;;;0.47;0.30;;;;;;;16.89;72.20;100921.03;5029789;28;20459;-51
2022/09/22 10:40:38;;;;;;;0.60;0.50;;;;;;;16.69;71.62;100923.72;5029538;28;20471;-51
2022/09/22 10:43:13;;;;;;;2.97;0.40;;;;;;;16.94;71.07;100910.09;5030257;28;20540;-51
2022/09/22 10:45:46;;;;;;;0.93;0.50;;;;;;;16.97;70.95;100915.31;5005347;28;20552;-52
2022/09/22 10:48:37;;;;;;;1.43;0.97;;;;;;;17.25;69.91;100913.09;5029609;28;20469;-52
2022/09/22 10:51:14;;;;;;;1.00;0.60;;;;;;;17.69;70.04;100908.38;5029303;28;20556;-51
2022/09/22 10:54:06;;;;;;;0.70;0.60;;;;;;;17.36;67.92;100907.25;5029999;28;20455;-50
2022/09/22 10:56:38;;;;;;;3.33;0.63;;;;;;;17.45;67.62;100902.31;5029521;28;20451;-50
2022/09/22 10:59:07;;;;;;;1.53;0.50;;;;;;;17.27;66.89;100907.66;5029391;28;20505;-50
2022/09/22 11:02:11;;;;;;;13.73;1.10;;;;;;;17.64;67.53;100904.13;5028818;28;20848;-51
2022/09/22 11:05:09;;;;;;;0.80;0.60;;;;;;;17.82;66.35;100895.22;5028620;28;20482;-50
2022/09/22 11:14:08;;;;;;;0.70;0.50;;;;;;;17.71;64.93;100897.56;5029465;28;20451;-51
2022/09/22 11:16:58;;;;;;;0.60;0.43;;;;;;;17.98;65.12;100888.13;5005599;28;20449;-51
2022/09/22 11:19:32;;;;;;;2.70;0.40;;;;;;;17.99;63.62;100887.19;5027875;28;20498;-51
2022/09/22 11:22:25;;;;;;;0.60;0.40;;;;;;;17.99;64.15;100886.31;5007940;28;20951;-51
2022/09/22 11:25:13;;;;;;;3.50;0.70;;;;;;;17.66;63.14;100891.47;5009451;28;20514;-51
2022/09/22 11:27:54;;;;;;;1.43;0.70;;;;;;;17.75;63.85;100878.50;5029060;28;20426;-50
2022/09/22 11:30:21;;;;;;;0.50;0.40;;;;;;;17.71;64.79;100873.34;5028587;28;20957;-50
2022/09/22 11:33:01;;;;;;;0.60;0.50;;;;;;;17.61;62.69;100885.47;5011379;28;20886;-51
2022/09/22 11:35:48;;;;;;;1.73;0.70;;;;;;;17.26;62.32;100871.00;5022164;28;20831;-51
2022/09/22 11:38:53;;;;;;;0.50;0.40;;;;;;;17.60;63.93;100867.59;5028612;28;20451;-50
2022/09/22 11:41:39;;;;;;;0.53;0.30;;;;;;;17.95;61.75;100869.44;4998171;28;20806;-50
2022/09/22 11:44:28;;;;;;;0.67;0.40;;;;;;;18.11;61.07;100861.50;5005854;28;20524;-51
2022/09/22 11:47:12;;;;;;;0.60;0.40;;;;;;;18.01;61.85;100863.75;5028624;28;20447;-51
2022/09/22 11:49:53;;;;;;;0.83;0.40;;;;;;;18.41;63.53;100856.34;5028530;28;20422;-50
2022/09/22 11:52:20;;;;;;;1.17;0.70;;;;;;;18.32;63.68;100859.50;5028516;28;20461;-51
2022/09/22 11:55:22;;;;;;;2.30;0.63;;;;;;;18.07;63.95;100857.19;5028500;28;20455;-50
2022/09/22 11:57:54;;;;;;;0.50;0.40;;;;;;;17.97;63.24;100861.31;5018457;28;20462;-51
2022/09/22 12:00:21;;;;;;;0.50;0.37;;;;;;;17.85;63.27;100862.78;5028738;28;20452;-51